Kota Waris — S6RJ — position and weather

sailwx.info

Track history (hours):
 
Tides and Currents Weather Stations Pressure Air Temp Water Temp Dewpoint Dewpoint Depression Visibility Wind Speed Wind Dir Waves Ship Positions

Kota Waris

Last reported at 2014-Sep-09 20:17 UTC. Time now 2014-Sep-19 05:52 UTC.
Position N 01°15' E 103°43'.
Warning: this ship's position is 9 days out of date.

Length 185 m; draft 5.3 m.

Type: Ship (hazmat cat A). MMSI: 564482000.

Date/timePositionNaut miles runAvg speedWind from/ knotsBaromVisibWave heightAir tempDewpointWater temp
2014-Sep-09 20:17N 01°15' E 103°43'4 1.7
2014-Sep-09 18:09N 01°17' E 103°46'0 0.0
2014-Sep-09 14:12N 01°17' E 103°46'0 0.0
2014-Sep-09 11:06N 01°17' E 103°46'0 0.0
2014-Sep-09 10:30N 01°17' E 103°46'0 0.0
2014-Sep-09 08:30N 01°17' E 103°46'0 0.0
2014-Sep-09 01:18N 01°17' E 103°46'0 0.0
2014-Sep-09 00:18N 01°17' E 103°46'0 0.1
2014-Sep-08 23:30N 01°17' E 103°46'0 0.0
2014-Sep-08 22:21N 01°17' E 103°46'0 0.0
2014-Sep-08 21:33N 01°17' E 103°46'0 0.0
2014-Sep-08 19:30N 01°17' E 103°46'1 0.3
2014-Sep-08 17:33N 01°17' E 103°45'4 3.7
2014-Sep-08 16:31N 01°15' E 103°48'0 0.1
2014-Sep-08 15:27N 01°15' E 103°48'0 0.0
2014-Sep-08 10:27N 01°15' E 103°48'0 0.0
2014-Sep-08 05:33N 01°15' E 103°48'0 0.0
2014-Sep-08 01:27N 01°15' E 103°48'0 0.1
2014-Sep-08 00:33N 01°15' E 103°48'0 0.1
2014-Sep-07 23:27N 01°15' E 103°48'0 0.1
2014-Sep-07 22:27N 01°15' E 103°48'0 0.0
2014-Sep-07 21:33N 01°15' E 103°48'0 0.0
2014-Sep-07 20:33N 01°15' E 103°48'0 0.0
2014-Sep-07 19:18N 01°15' E 103°48'0 0.1
2014-Sep-07 18:18N 01°15' E 103°48'0 0.1
2014-Sep-07 17:21N 01°15' E 103°48'0 0.2
2014-Sep-07 16:33N 01°15' E 103°48'5 5.5
2014-Sep-07 15:33N 01°14' E 103°43'  
Track history (hours):
 
Tides and Currents Weather Stations Pressure Air Temp Water Temp Dewpoint Dewpoint Depression Visibility Wind Speed Wind Dir Waves Ship Positions

Kota Waris

Last reported at 2014-Sep-09 20:17 UTC. Time now 2014-Sep-19 05:52 UTC.
Position N 01°15' E 103°43'.
Warning: this ship's position is 9 days out of date.

Length 185 m; draft 5.3 m.

Type: Ship (hazmat cat A). MMSI: 564482000.

Date/timePositionNaut miles runAvg speedWind from/ knotsBaromVisibWave heightAir tempDewpointWater temp
2014-Sep-09 20:17N 01°15' E 103°43'4 1.7
2014-Sep-09 18:09N 01°17' E 103°46'0 0.0
2014-Sep-09 14:12N 01°17' E 103°46'0 0.0
2014-Sep-09 11:06N 01°17' E 103°46'0 0.0
2014-Sep-09 10:30N 01°17' E 103°46'0 0.0
2014-Sep-09 08:30N 01°17' E 103°46'0 0.0
2014-Sep-09 01:18N 01°17' E 103°46'0 0.0
2014-Sep-09 00:18N 01°17' E 103°46'0 0.1
2014-Sep-08 23:30N 01°17' E 103°46'0 0.0
2014-Sep-08 22:21N 01°17' E 103°46'0 0.0
2014-Sep-08 21:33N 01°17' E 103°46'0 0.0
2014-Sep-08 19:30N 01°17' E 103°46'1 0.3
2014-Sep-08 17:33N 01°17' E 103°45'4 3.7
2014-Sep-08 16:31N 01°15' E 103°48'0 0.1
2014-Sep-08 15:27N 01°15' E 103°48'0 0.0
2014-Sep-08 10:27N 01°15' E 103°48'0 0.0
2014-Sep-08 05:33N 01°15' E 103°48'0 0.0
2014-Sep-08 01:27N 01°15' E 103°48'0 0.1
2014-Sep-08 00:33N 01°15' E 103°48'0 0.1
2014-Sep-07 23:27N 01°15' E 103°48'0 0.1
2014-Sep-07 22:27N 01°15' E 103°48'0 0.0
2014-Sep-07 21:33N 01°15' E 103°48'0 0.0
2014-Sep-07 20:33N 01°15' E 103°48'0 0.0
2014-Sep-07 19:18N 01°15' E 103°48'0 0.1
2014-Sep-07 18:18N 01°15' E 103°48'0 0.1
2014-Sep-07 17:21N 01°15' E 103°48'0 0.2
2014-Sep-07 16:33N 01°15' E 103°48'5 5.5
2014-Sep-07 15:33N 01°14' E 103°43'  

Dump ship's entire track history